createdAt,value
2022-11-24T00:00:40.386Z,82.91
2022-11-24T00:01:40.378Z,83.06
2022-11-24T00:02:40.452Z,83.38
2022-11-24T00:03:40.395Z,83.26
2022-11-24T00:04:40.339Z,83.12
2022-11-24T00:05:40.312Z,82.90
2022-11-24T00:06:40.340Z,83.05
2022-11-24T00:07:40.340Z,82.97
2022-11-24T00:08:40.285Z,82.78
2022-11-24T00:09:40.309Z,82.85
2022-11-24T00:10:40.255Z,82.87
2022-11-24T00:11:40.242Z,82.96
2022-11-24T00:12:40.243Z,82.98
2022-11-24T00:13:40.222Z,83.03
2022-11-24T00:14:40.198Z,82.94
2022-11-24T00:15:40.229Z,82.93
2022-11-24T00:16:40.231Z,82.50
2022-11-24T00:17:40.154Z,82.42
2022-11-24T00:18:40.170Z,82.35
2022-11-24T00:19:40.131Z,82.59
2022-11-24T00:20:40.130Z,82.78
2022-11-24T00:21:40.121Z,82.51
2022-11-24T00:22:40.104Z,82.63
2022-11-24T00:23:40.100Z,82.43
2022-11-24T00:24:40.067Z,82.38
2022-11-24T00:25:40.062Z,82.19
2022-11-24T00:26:40.041Z,82.03
2022-11-24T00:27:40.030Z,82.11
2022-11-24T00:28:40.294Z,82.10
2022-11-24T00:29:39.997Z,82.18
2022-11-24T00:30:40.134Z,82.00
2022-11-24T00:31:39.979Z,82.05
2022-11-24T00:32:39.999Z,82.18
2022-11-24T00:33:39.947Z,82.27
2022-11-24T00:34:39.960Z,82.23
2022-11-24T00:35:39.919Z,81.97
2022-11-24T00:36:39.911Z,81.97
2022-11-24T00:37:39.953Z,82.00
2022-11-24T00:38:39.914Z,81.96
2022-11-24T00:39:39.905Z,81.94
2022-11-24T00:40:39.888Z,82.02
2022-11-24T00:41:39.840Z,81.76
2022-11-24T00:42:39.831Z,81.88
2022-11-24T00:43:39.819Z,82.15
2022-11-24T00:44:39.825Z,81.91
2022-11-24T00:45:39.876Z,81.89
2022-11-24T00:46:40.045Z,81.95
2022-11-24T00:47:39.776Z,81.92
2022-11-24T00:48:39.772Z,81.96
2022-11-24T00:49:39.748Z,81.87
2022-11-24T00:50:39.727Z,81.63
2022-11-24T00:51:39.722Z,81.77
2022-11-24T00:52:39.713Z,81.63
2022-11-24T00:53:39.682Z,81.84
2022-11-24T00:54:39.674Z,81.75
2022-11-24T00:55:39.661Z,81.64
2022-11-24T00:56:39.643Z,81.57
2022-11-24T00:57:39.636Z,81.68
2022-11-24T00:58:39.635Z,81.74
2022-11-24T00:59:39.604Z,81.81
2022-11-24T01:00:39.604Z,81.83
2022-11-24T01:01:39.623Z,81.98
2022-11-24T01:02:39.610Z,81.88
2022-11-24T01:03:39.549Z,81.65
2022-11-24T01:04:39.572Z,81.26
2022-11-24T01:05:39.521Z,81.41
2022-11-24T01:06:39.513Z,81.61
2022-11-24T01:07:39.564Z,81.54
2022-11-24T01:08:39.553Z,81.47
2022-11-24T01:09:39.490Z,81.62
2022-11-24T01:10:39.457Z,81.43
2022-11-24T01:11:39.443Z,81.43
2022-11-24T01:12:39.437Z,81.37
2022-11-24T01:13:39.424Z,81.41
2022-11-24T01:14:39.407Z,81.51
2022-11-24T01:15:39.427Z,81.62
2022-11-24T01:16:39.390Z,81.59
2022-11-24T01:17:39.362Z,81.61
2022-11-24T01:18:39.369Z,81.57
2022-11-24T01:19:39.341Z,81.71
2022-11-24T01:20:39.367Z,81.65
2022-11-24T01:21:39.329Z,81.74
2022-11-24T01:22:39.318Z,81.94
2022-11-24T01:23:39.335Z,81.78
2022-11-24T01:24:39.284Z,81.81
2022-11-24T01:25:39.266Z,81.72
2022-11-24T01:26:39.290Z,81.78
2022-11-24T01:27:39.238Z,81.45
2022-11-24T01:28:44.920Z,81.63
2022-11-24T01:29:39.249Z,81.34
2022-11-24T01:30:39.203Z,81.37
2022-11-24T01:31:39.197Z,81.74
2022-11-24T01:32:39.166Z,81.87
2022-11-24T01:33:39.157Z,81.52
2022-11-24T01:34:39.160Z,81.62
2022-11-24T01:35:39.136Z,81.86
2022-11-24T01:36:39.126Z,82.11
2022-11-24T01:37:39.099Z,82.12
2022-11-24T01:38:39.086Z,82.03
2022-11-24T01:39:39.071Z,82.15
2022-11-24T01:40:39.075Z,81.99
2022-11-24T01:41:39.041Z,82.07
2022-11-24T01:42:39.027Z,81.91
2022-11-24T01:43:39.029Z,81.99
2022-11-24T01:44:39.002Z,81.97
2022-11-24T01:45:38.988Z,81.86
2022-11-24T01:46:39.048Z,81.59
2022-11-24T01:47:38.963Z,81.66
2022-11-24T01:48:38.951Z,81.78
2022-11-24T01:49:38.948Z,81.66
2022-11-24T01:50:38.919Z,81.44
2022-11-24T01:51:38.916Z,81.54
2022-11-24T01:52:38.911Z,81.37
2022-11-24T01:53:38.952Z,81.36
2022-11-24T01:54:38.866Z,81.56
2022-11-24T01:55:38.930Z,81.27
2022-11-24T01:56:38.849Z,80.90
2022-11-24T01:57:38.830Z,80.94
2022-11-24T01:58:38.819Z,80.96
2022-11-24T01:59:38.833Z,81.09
2022-11-24T02:00:38.787Z,80.89
2022-11-24T02:01:38.858Z,81.11
2022-11-24T02:02:38.812Z,80.69
2022-11-24T02:03:38.765Z,80.52
2022-11-24T02:04:38.747Z,80.87
2022-11-24T02:05:38.742Z,80.98
2022-11-24T02:06:38.719Z,80.70
2022-11-24T02:07:38.782Z,80.67
2022-11-24T02:08:38.680Z,80.64
2022-11-24T02:09:38.733Z,80.47
2022-11-24T02:10:38.653Z,80.95
2022-11-24T02:11:38.658Z,81.00
2022-11-24T02:12:38.641Z,80.97
2022-11-24T02:13:38.675Z,81.08
2022-11-24T02:14:38.626Z,80.93
2022-11-24T02:15:38.653Z,81.20
2022-11-24T02:16:38.577Z,81.08
2022-11-24T02:17:38.597Z,80.83
2022-11-24T02:18:38.551Z,81.02
2022-11-24T02:19:38.588Z,80.99
2022-11-24T02:20:38.523Z,81.02
2022-11-24T02:21:38.524Z,80.66
2022-11-24T02:22:38.507Z,81.06
2022-11-24T02:23:38.489Z,81.18
2022-11-24T02:24:38.468Z,81.01
2022-11-24T02:25:38.481Z,81.04
2022-11-24T02:26:38.443Z,80.92
2022-11-24T02:27:38.461Z,80.96
2022-11-24T02:28:38.414Z,80.97
2022-11-24T02:29:38.412Z,81.11
2022-11-24T02:30:38.388Z,81.03
2022-11-24T02:31:38.501Z,81.17
2022-11-24T02:32:38.368Z,80.89
2022-11-24T02:33:38.356Z,80.85
2022-11-24T02:34:38.343Z,80.84
2022-11-24T02:35:38.369Z,80.83
2022-11-24T02:36:38.326Z,80.95
2022-11-24T02:37:38.298Z,81.00
2022-11-24T02:38:38.281Z,80.84
2022-11-24T02:39:38.282Z,81.04
2022-11-24T02:40:38.259Z,80.94
2022-11-24T02:41:38.255Z,81.00
2022-11-24T02:42:38.228Z,81.08
2022-11-24T02:43:38.234Z,81.01
2022-11-24T02:44:38.224Z,81.04
2022-11-24T02:45:38.198Z,81.13
2022-11-24T02:46:38.198Z,80.98
2022-11-24T02:47:38.177Z,80.86
2022-11-24T02:48:38.160Z,80.78
2022-11-24T02:49:38.142Z,80.89
2022-11-24T02:50:38.128Z,80.79
2022-11-24T02:51:38.110Z,80.68
2022-11-24T02:52:38.104Z,80.78
2022-11-24T02:53:38.083Z,80.54
2022-11-24T02:54:38.073Z,80.70
2022-11-24T02:55:38.074Z,80.76
2022-11-24T02:56:38.040Z,81.01
2022-11-24T02:57:38.035Z,81.01
2022-11-24T02:58:38.026Z,80.84
2022-11-24T02:59:38.036Z,80.98
2022-11-24T03:00:38.018Z,81.13
2022-11-24T03:01:38.081Z,80.85
2022-11-24T03:02:38.101Z,80.74
2022-11-24T03:03:37.953Z,80.92
2022-11-24T03:04:37.932Z,80.72
2022-11-24T03:05:37.927Z,80.85
2022-11-24T03:06:37.906Z,80.92
2022-11-24T03:07:38.003Z,80.88
2022-11-24T03:08:37.899Z,80.75
2022-11-24T03:09:37.904Z,80.81
2022-11-24T03:10:37.877Z,80.74
2022-11-24T03:11:37.842Z,80.58
2022-11-24T03:12:37.863Z,80.62
2022-11-24T03:13:37.828Z,80.77
2022-11-24T03:14:37.817Z,80.78
2022-11-24T03:15:37.845Z,80.69
2022-11-24T03:16:37.779Z,80.64
2022-11-24T03:17:37.775Z,80.87
2022-11-24T03:18:37.748Z,80.86
2022-11-24T03:19:37.744Z,81.01
2022-11-24T03:20:37.743Z,80.94
2022-11-24T03:21:37.710Z,80.94
2022-11-24T03:22:37.694Z,80.94
2022-11-24T03:23:37.689Z,81.00
2022-11-24T03:24:37.696Z,80.87
2022-11-24T03:25:37.656Z,80.82
2022-11-24T03:26:37.640Z,80.81
2022-11-24T03:27:37.644Z,80.85
2022-11-24T03:28:37.619Z,80.87
2022-11-24T03:29:37.610Z,80.93
2022-11-24T03:30:37.605Z,80.86
2022-11-24T03:31:37.654Z,80.90
2022-11-24T03:32:37.571Z,81.10
2022-11-24T03:33:37.550Z,81.05
2022-11-24T03:34:37.573Z,80.81
2022-11-24T03:35:37.584Z,80.62
2022-11-24T03:36:37.513Z,80.63
2022-11-24T03:37:37.516Z,80.76
2022-11-24T03:38:37.510Z,80.93
2022-11-24T03:39:37.487Z,81.06
2022-11-24T03:40:37.466Z,81.01
2022-11-24T03:41:37.462Z,81.07
2022-11-24T03:42:37.440Z,81.02
2022-11-24T03:43:43.223Z,81.01
2022-11-24T03:44:37.439Z,81.13
2022-11-24T03:45:45.818Z,81.29
2022-11-24T03:46:37.569Z,81.23
2022-11-24T03:47:37.380Z,81.07
2022-11-24T03:48:37.356Z,80.83
2022-11-24T03:49:37.359Z,81.03
2022-11-24T03:50:37.332Z,80.83
2022-11-24T03:51:37.332Z,80.92
2022-11-24T03:52:37.320Z,80.73
2022-11-24T03:53:37.292Z,80.82
2022-11-24T03:54:37.293Z,81.02
2022-11-24T03:55:37.318Z,81.09
2022-11-24T03:56:37.250Z,81.20
2022-11-24T03:57:37.273Z,81.20
2022-11-24T03:58:37.226Z,81.18
2022-11-24T03:59:37.230Z,81.27
2022-11-24T04:00:37.212Z,81.25
2022-11-24T04:01:37.254Z,81.47
2022-11-24T04:02:37.229Z,81.51
2022-11-24T04:03:37.165Z,81.43
2022-11-24T04:04:37.157Z,81.34
2022-11-24T04:05:37.141Z,81.38
2022-11-24T04:06:37.146Z,81.35
2022-11-24T04:07:37.203Z,81.23
2022-11-24T04:08:37.100Z,81.20
2022-11-24T04:09:37.093Z,81.20
2022-11-24T04:10:37.090Z,81.25
2022-11-24T04:11:37.082Z,81.45
2022-11-24T04:12:37.044Z,81.42
2022-11-24T04:13:37.054Z,81.36
2022-11-24T04:14:37.364Z,81.28
2022-11-24T04:15:37.052Z,81.38
2022-11-24T04:16:37.038Z,81.40
2022-11-24T04:17:36.991Z,81.41
2022-11-24T04:18:36.973Z,81.30
2022-11-24T04:19:36.971Z,81.32
2022-11-24T04:20:36.949Z,81.31
2022-11-24T04:21:36.982Z,80.98
2022-11-24T04:22:36.942Z,81.11
2022-11-24T04:23:36.940Z,81.14
2022-11-24T04:24:36.885Z,81.22
2022-11-24T04:25:36.872Z,81.32
2022-11-24T04:26:36.858Z,81.08
2022-11-24T04:27:36.868Z,80.90
2022-11-24T04:28:36.868Z,80.95
2022-11-24T04:29:36.821Z,80.93
2022-11-24T04:30:36.821Z,80.87
2022-11-24T04:31:36.873Z,80.69
2022-11-24T04:32:36.778Z,80.67
2022-11-24T04:33:36.781Z,80.82
2022-11-24T04:34:36.944Z,80.97
2022-11-24T04:35:36.769Z,81.10
2022-11-24T04:36:36.742Z,81.00
2022-11-24T04:37:36.716Z,80.91
2022-11-24T04:39:23.989Z,80.89
2022-11-24T04:39:36.695Z,80.94
2022-11-24T04:40:36.678Z,81.00
2022-11-24T04:41:36.757Z,81.11
2022-11-24T04:42:36.649Z,81.15
2022-11-24T04:43:40.635Z,81.10
2022-11-24T04:44:36.875Z,81.18
2022-11-24T04:45:36.696Z,80.96
2022-11-24T04:46:36.624Z,80.96
2022-11-24T04:47:36.653Z,80.94
2022-11-24T04:48:36.595Z,80.92
2022-11-24T04:49:36.557Z,80.95
2022-11-24T04:50:36.591Z,80.87
2022-11-24T04:51:36.528Z,80.93
2022-11-24T04:52:36.520Z,80.68
2022-11-24T04:53:36.541Z,80.69
2022-11-24T04:54:36.603Z,80.68
2022-11-24T04:55:36.494Z,80.76
2022-11-24T04:56:36.466Z,80.82
2022-11-24T04:57:36.458Z,80.79
2022-11-24T04:58:36.441Z,80.70
2022-11-24T04:59:36.425Z,80.77
2022-11-24T05:00:36.434Z,80.95
2022-11-24T05:01:36.428Z,80.91
2022-11-24T05:02:36.385Z,80.91
2022-11-24T05:03:36.415Z,80.50
2022-11-24T05:04:36.931Z,80.52
2022-11-24T05:05:36.377Z,80.71
2022-11-24T05:06:36.340Z,80.67
2022-11-24T05:07:36.359Z,80.75
2022-11-24T05:08:36.318Z,80.79
2022-11-24T05:09:55.213Z,80.85
2022-11-24T05:10:36.289Z,80.73
2022-11-24T05:11:36.271Z,80.73
2022-11-24T05:12:36.268Z,80.63
2022-11-24T05:13:36.261Z,80.74
2022-11-24T05:14:36.445Z,80.83
2022-11-24T05:15:36.219Z,80.75
2022-11-24T05:16:36.272Z,80.72
2022-11-24T05:17:36.210Z,80.67
2022-11-24T05:18:36.165Z,80.79
2022-11-24T05:19:36.157Z,80.83
2022-11-24T05:20:36.203Z,80.63
2022-11-24T05:21:36.129Z,80.59
2022-11-24T05:22:36.134Z,80.85
2022-11-24T05:23:36.114Z,80.92
2022-11-24T05:24:36.320Z,80.98
2022-11-24T05:25:36.085Z,80.91
2022-11-24T05:26:36.071Z,80.96
2022-11-24T05:27:36.051Z,81.07
2022-11-24T05:28:36.034Z,81.03
2022-11-24T05:29:36.040Z,81.08
2022-11-24T05:30:36.023Z,81.10
2022-11-24T05:31:36.034Z,81.08
2022-11-24T05:32:35.994Z,81.09
2022-11-24T05:33:35.982Z,81.19
2022-11-24T05:34:36.270Z,81.02
2022-11-24T05:35:35.947Z,81.18
2022-11-24T05:36:35.934Z,81.31
2022-11-24T05:37:35.918Z,81.06
2022-11-24T05:38:35.930Z,81.06
2022-11-24T05:39:35.889Z,81.06
2022-11-24T05:40:35.889Z,81.18
2022-11-24T05:41:35.868Z,81.20
2022-11-24T05:42:35.855Z,81.17
2022-11-24T05:43:35.877Z,80.95
2022-11-24T05:44:36.125Z,81.00
2022-11-24T05:45:35.820Z,81.00
2022-11-24T05:46:35.883Z,80.80
2022-11-24T05:47:35.812Z,80.79
2022-11-24T05:48:35.772Z,80.84
2022-11-24T05:49:35.763Z,80.77
2022-11-24T05:50:35.754Z,80.65
2022-11-24T05:51:35.729Z,80.43
2022-11-24T05:52:35.750Z,80.61
2022-11-24T05:53:35.715Z,80.59
2022-11-24T05:55:31.866Z,80.22
2022-11-24T05:56:32.791Z,80.34
2022-11-24T05:57:32.796Z,80.33
2022-11-24T05:58:32.754Z,80.34
2022-11-24T05:59:32.733Z,80.10
2022-11-24T06:00:32.771Z,80.01
2022-11-24T06:01:32.774Z,80.07
2022-11-24T06:02:32.854Z,80.07
2022-11-24T06:03:32.676Z,79.91
2022-11-24T06:04:33.126Z,79.77
2022-11-24T06:05:32.668Z,79.92
2022-11-24T06:06:32.654Z,79.95
2022-11-24T06:07:32.674Z,80.04
2022-11-24T06:08:32.631Z,79.92
2022-11-24T06:09:32.609Z,79.91
2022-11-24T06:10:32.601Z,79.75
2022-11-24T06:11:32.586Z,79.60
2022-11-24T06:12:32.634Z,79.71
2022-11-24T06:13:32.597Z,79.84
2022-11-24T06:14:32.896Z,79.80
2022-11-24T06:15:32.540Z,79.70
2022-11-24T06:16:32.581Z,79.64
2022-11-24T06:17:32.500Z,79.69
2022-11-24T06:18:32.507Z,79.46
2022-11-24T06:19:32.521Z,79.48
2022-11-24T06:20:33.194Z,79.48
2022-11-24T06:21:32.499Z,79.70
2022-11-24T06:22:32.446Z,79.73
2022-11-24T06:23:32.463Z,79.71
2022-11-24T06:24:32.814Z,79.74
2022-11-24T06:25:32.402Z,79.92
2022-11-24T06:26:32.398Z,79.71
2022-11-24T06:27:32.362Z,79.90
2022-11-24T06:28:32.345Z,79.78
2022-11-24T06:29:32.359Z,79.85
2022-11-24T06:30:32.319Z,79.82
2022-11-24T06:31:32.333Z,79.65
2022-11-24T06:32:32.312Z,79.87
2022-11-24T06:33:32.289Z,79.80
2022-11-24T06:34:32.763Z,79.79
2022-11-24T06:35:32.249Z,79.81
2022-11-24T06:36:32.271Z,79.75
2022-11-24T06:37:32.226Z,79.83
2022-11-24T06:38:32.210Z,79.70
2022-11-24T06:39:32.196Z,79.62
2022-11-24T06:40:32.212Z,79.40
2022-11-24T06:41:32.177Z,79.40
2022-11-24T06:42:32.188Z,79.47
2022-11-24T06:43:32.137Z,79.55
2022-11-24T06:44:32.777Z,79.50
2022-11-24T06:45:32.183Z,79.59
2022-11-24T06:46:32.107Z,79.38
2022-11-24T06:47:32.089Z,79.17
2022-11-24T06:48:32.105Z,79.31
2022-11-24T06:49:32.076Z,79.31
2022-11-24T06:50:33.746Z,79.32
2022-11-24T06:51:32.071Z,79.21
2022-11-24T06:52:32.030Z,78.90
2022-11-24T06:53:32.012Z,79.04
2022-11-24T06:54:32.255Z,79.02
2022-11-24T06:55:32.005Z,78.98
2022-11-24T06:56:31.983Z,78.95
2022-11-24T06:57:31.983Z,78.92
2022-11-24T06:58:31.945Z,78.82
2022-11-24T06:59:31.943Z,79.02
2022-11-24T07:00:31.948Z,78.60
2022-11-24T07:01:31.993Z,78.57
2022-11-24T07:02:31.895Z,78.80
2022-11-24T07:03:31.984Z,78.92
2022-11-24T07:04:32.160Z,78.94
2022-11-24T07:05:31.853Z,78.95
2022-11-24T07:06:31.846Z,78.94
2022-11-24T07:07:31.945Z,79.22
2022-11-24T07:08:31.830Z,79.10
2022-11-24T07:09:31.822Z,79.08
2022-11-24T07:10:31.824Z,79.00
2022-11-24T07:11:31.780Z,78.76
2022-11-24T07:12:31.770Z,78.79
2022-11-24T07:13:31.755Z,78.69
2022-11-24T07:14:32.081Z,78.58
2022-11-24T07:15:31.721Z,78.98
2022-11-24T07:16:31.759Z,78.65
2022-11-24T07:17:31.687Z,78.77
2022-11-24T07:18:31.690Z,78.81
2022-11-24T07:19:31.678Z,79.02
2022-11-24T07:20:31.653Z,78.97
2022-11-24T07:21:31.663Z,78.94
2022-11-24T07:22:31.636Z,79.04
2022-11-24T07:23:31.634Z,79.03
2022-11-24T07:24:31.692Z,79.02
2022-11-24T07:25:31.598Z,78.69
2022-11-24T07:26:31.638Z,79.03
2022-11-24T07:27:31.558Z,78.97
2022-11-24T07:28:31.562Z,78.86
2022-11-24T07:29:31.550Z,78.89
2022-11-24T07:30:31.566Z,78.82
2022-11-24T07:31:31.518Z,78.77
2022-11-24T07:32:31.489Z,78.90
2022-11-24T07:33:31.482Z,78.87
2022-11-24T07:34:31.610Z,78.97
2022-11-24T07:35:31.447Z,78.55
2022-11-24T07:36:31.493Z,78.48
2022-11-24T07:37:32.043Z,78.40
2022-11-24T07:38:31.424Z,78.62
2022-11-24T07:39:31.413Z,78.36
2022-11-24T07:40:31.398Z,78.38
2022-11-24T07:41:31.372Z,78.42
2022-11-24T07:42:31.371Z,78.37
2022-11-24T07:43:31.349Z,78.28
2022-11-24T07:44:31.551Z,77.86
2022-11-24T07:45:31.377Z,77.87
2022-11-24T07:46:31.308Z,77.70
2022-11-24T07:47:31.296Z,77.85
2022-11-24T07:48:31.306Z,78.24
2022-11-24T07:49:31.270Z,78.01
2022-11-24T07:50:31.264Z,77.78
2022-11-24T07:51:31.258Z,77.70
2022-11-24T07:52:31.508Z,77.29
2022-11-24T07:53:31.208Z,78.57
2022-11-24T07:54:31.345Z,79.18
2022-11-24T07:55:31.183Z,80.26
2022-11-24T07:56:31.171Z,79.26
2022-11-24T07:57:31.169Z,77.95
2022-11-24T07:58:32.968Z,77.40
2022-11-24T07:59:31.207Z,75.61
2022-11-24T08:00:31.135Z,74.90
2022-11-24T08:01:31.138Z,74.53
2022-11-24T08:02:31.094Z,74.89
2022-11-24T08:03:31.141Z,75.21
2022-11-24T08:04:31.143Z,74.49
2022-11-24T08:05:31.051Z,75.02
2022-11-24T08:06:39.382Z,74.51
2022-11-24T08:07:31.083Z,74.78
2022-11-24T08:08:31.014Z,74.60
2022-11-24T08:09:31.003Z,74.80
2022-11-24T08:10:30.997Z,74.59
2022-11-24T08:11:30.974Z,74.25
2022-11-24T08:12:30.959Z,74.64
2022-11-24T08:13:30.965Z,74.54
2022-11-24T08:14:30.951Z,74.55
2022-11-24T08:15:30.919Z,74.80
2022-11-24T08:16:30.945Z,75.19
2022-11-24T08:17:30.901Z,75.03
2022-11-24T08:18:30.898Z,74.37
2022-11-24T08:19:30.879Z,74.78
2022-11-24T08:20:30.897Z,74.46
2022-11-24T08:21:30.851Z,74.86
2022-11-24T08:22:30.839Z,74.40
2022-11-24T08:23:30.846Z,74.31
2022-11-24T08:24:30.799Z,74.24
2022-11-24T08:25:30.798Z,74.47
2022-11-24T08:26:30.787Z,74.35
2022-11-24T08:27:30.768Z,74.09
2022-11-24T08:28:30.750Z,74.41
2022-11-24T08:29:30.754Z,74.22
2022-11-24T08:30:30.728Z,74.23
2022-11-24T08:31:30.802Z,73.76
2022-11-24T08:32:30.739Z,73.11
2022-11-24T08:33:30.693Z,72.83
2022-11-24T08:34:30.702Z,72.41
2022-11-24T08:35:30.660Z,72.46
2022-11-24T08:36:30.645Z,72.42
2022-11-24T08:37:30.673Z,72.39
2022-11-24T08:38:30.657Z,72.44
2022-11-24T08:39:30.610Z,72.41
2022-11-24T08:40:30.592Z,72.44
2022-11-24T08:41:30.573Z,72.76
2022-11-24T08:42:30.702Z,72.99
2022-11-24T08:43:30.577Z,72.15
2022-11-24T08:44:30.548Z,72.21
2022-11-24T08:45:30.939Z,72.25
2022-11-24T08:46:30.635Z,72.16
2022-11-24T08:47:30.501Z,72.10
2022-11-24T08:48:30.489Z,72.04
2022-11-24T08:49:30.480Z,71.98
2022-11-24T08:50:30.467Z,71.89
2022-11-24T08:51:30.457Z,71.96
2022-11-24T08:52:30.437Z,71.78
2022-11-24T08:53:30.445Z,71.92
2022-11-24T08:54:30.404Z,71.87
2022-11-24T08:55:30.401Z,71.98
2022-11-24T08:56:30.391Z,71.68
2022-11-24T08:57:30.380Z,71.80
2022-11-24T08:58:30.354Z,71.64
2022-11-24T08:59:30.485Z,71.61
2022-11-24T09:00:30.334Z,71.81
2022-11-24T09:01:30.403Z,71.50
2022-11-24T09:02:30.314Z,71.69
2022-11-24T09:03:30.335Z,71.89
2022-11-24T09:04:30.374Z,71.51
2022-11-24T09:05:51.187Z,70.99
2022-11-24T09:06:30.305Z,70.89
2022-11-24T09:07:30.289Z,70.50
2022-11-24T09:08:30.251Z,70.24
2022-11-24T09:09:30.272Z,69.89
2022-11-24T09:10:30.207Z,70.37
2022-11-24T09:11:30.192Z,70.32
2022-11-24T09:12:30.180Z,70.42
2022-11-24T09:13:30.175Z,70.32
2022-11-24T09:14:30.162Z,70.33
2022-11-24T09:15:30.138Z,70.31
2022-11-24T09:16:30.196Z,70.57
2022-11-24T09:17:30.131Z,70.51
2022-11-24T09:18:30.646Z,69.90
2022-11-24T09:19:30.081Z,70.24
2022-11-24T09:20:30.085Z,70.22
2022-11-24T09:21:30.086Z,70.24
2022-11-24T09:22:30.044Z,70.01
2022-11-24T09:23:30.025Z,70.11
2022-11-24T09:24:30.023Z,70.53
2022-11-24T09:25:30.036Z,70.20
2022-11-24T09:26:29.998Z,69.88
2022-11-24T09:27:29.987Z,69.82
2022-11-24T09:28:29.996Z,69.81
2022-11-24T09:29:30.005Z,70.02
2022-11-24T09:30:30.029Z,69.95
2022-11-24T09:31:30.027Z,69.71
2022-11-24T09:32:29.915Z,69.67
2022-11-24T09:33:29.898Z,69.61
2022-11-24T09:34:29.893Z,69.36
2022-11-24T09:35:29.897Z,69.31
2022-11-24T09:36:29.891Z,69.71
2022-11-24T09:37:32.822Z,69.58
2022-11-24T09:38:29.853Z,69.21
2022-11-24T09:39:29.851Z,69.44
2022-11-24T09:40:29.819Z,69.71
2022-11-24T09:41:29.806Z,69.63
2022-11-24T09:42:29.799Z,69.25
2022-11-24T09:43:29.780Z,69.27
2022-11-24T09:44:29.763Z,69.22
2022-11-24T09:45:49.312Z,69.01
2022-11-24T09:46:29.859Z,69.24
2022-11-24T09:47:29.769Z,69.01
2022-11-24T09:48:29.701Z,69.08
2022-11-24T09:49:29.713Z,69.07
2022-11-24T09:50:29.679Z,68.99
2022-11-24T09:51:29.670Z,69.19
2022-11-24T09:52:29.653Z,68.90
2022-11-24T09:53:29.689Z,68.84
2022-11-24T09:54:29.655Z,68.59
2022-11-24T09:55:29.622Z,68.33
2022-11-24T09:56:29.603Z,68.31
2022-11-24T09:57:34.269Z,68.53
2022-11-24T09:58:29.583Z,68.38
2022-11-24T09:59:29.571Z,68.34
2022-11-24T10:00:29.570Z,68.48
2022-11-24T10:01:29.605Z,68.66
2022-11-24T10:02:29.516Z,68.69
2022-11-24T10:03:29.513Z,68.41
2022-11-24T10:04:29.667Z,68.07
2022-11-24T10:05:29.495Z,68.12
2022-11-24T10:06:29.468Z,68.42
2022-11-24T10:07:29.525Z,68.20
2022-11-24T10:08:29.440Z,67.78
2022-11-24T10:09:29.453Z,67.66
2022-11-24T10:10:29.428Z,67.85
2022-11-24T10:11:29.427Z,68.16
2022-11-24T10:12:29.412Z,67.81
2022-11-24T10:13:29.391Z,67.77
2022-11-24T10:14:29.401Z,67.93
2022-11-24T10:15:29.455Z,68.13
2022-11-24T10:16:29.540Z,68.97
2022-11-24T10:17:29.353Z,69.17
2022-11-24T10:18:29.346Z,69.39
2022-11-24T10:19:36.373Z,70.10
2022-11-24T10:20:29.342Z,70.43
2022-11-24T10:21:29.326Z,70.56
2022-11-24T10:22:29.272Z,71.51
2022-11-24T10:23:29.265Z,72.15
2022-11-24T10:24:29.263Z,72.94
2022-11-24T10:25:29.255Z,73.26
2022-11-24T10:26:29.234Z,73.42
2022-11-24T10:27:29.218Z,73.80
2022-11-24T10:28:29.206Z,74.45
2022-11-24T10:29:29.198Z,75.34
2022-11-24T10:30:29.158Z,75.94
2022-11-24T10:31:29.231Z,76.44
2022-11-24T10:32:29.134Z,76.95
2022-11-24T10:33:30.952Z,76.78
2022-11-24T10:34:29.146Z,77.17
2022-11-24T10:35:29.173Z,77.75
2022-11-24T10:36:29.071Z,78.17
2022-11-24T10:37:29.093Z,78.31
2022-11-24T10:38:29.064Z,79.04
2022-11-24T10:39:29.064Z,79.41
2022-11-24T10:41:29.026Z,80.25
2022-11-24T10:42:28.994Z,80.53
2022-11-24T10:43:28.992Z,80.80
2022-11-24T10:44:28.970Z,80.84
2022-11-24T10:45:28.985Z,81.44
2022-11-24T10:46:29.555Z,81.95
2022-11-24T10:47:28.928Z,81.92
2022-11-24T10:48:28.915Z,82.28
2022-11-24T10:49:28.916Z,82.71
2022-11-24T10:50:28.930Z,82.84
2022-11-24T10:51:28.882Z,83.26
2022-11-24T10:52:28.864Z,83.41
2022-11-24T10:53:28.889Z,83.79
2022-11-24T10:54:28.859Z,83.71
2022-11-24T10:55:28.838Z,83.01
2022-11-24T10:56:28.825Z,83.33
2022-11-24T10:57:28.793Z,83.81
2022-11-24T10:58:34.282Z,84.25
2022-11-24T10:59:28.835Z,84.48
2022-11-24T11:00:28.763Z,84.73
2022-11-24T11:01:28.822Z,84.99
2022-11-24T11:02:28.765Z,84.87
2022-11-24T11:03:28.718Z,84.70
2022-11-24T11:04:28.696Z,84.40
2022-11-24T11:05:28.699Z,84.51
2022-11-24T11:06:28.677Z,84.48
2022-11-24T11:07:28.734Z,84.84
2022-11-24T11:08:28.660Z,84.29
2022-11-24T11:09:28.632Z,84.12
2022-11-24T11:10:28.627Z,84.35
2022-11-24T11:11:28.609Z,84.57
2022-11-24T11:12:43.220Z,84.64
2022-11-24T11:13:28.591Z,84.68
2022-11-24T11:14:28.564Z,84.73
2022-11-24T11:15:28.724Z,84.61
2022-11-24T11:16:28.572Z,84.48
2022-11-24T11:17:28.528Z,84.65
2022-11-24T11:18:28.522Z,84.88
2022-11-24T11:20:28.497Z,84.93
2022-11-24T11:21:28.482Z,85.01
2022-11-24T11:22:28.462Z,84.81
2022-11-24T11:23:28.456Z,84.97
2022-11-24T11:24:28.433Z,85.20
2022-11-24T11:25:28.422Z,85.28
2022-11-24T11:26:28.436Z,85.58
2022-11-24T11:27:28.398Z,85.54
2022-11-24T11:28:28.400Z,85.55
2022-11-24T11:31:28.360Z,85.78
2022-11-24T11:34:30.305Z,85.87
2022-11-24T11:35:28.327Z,85.93
2022-11-24T11:36:28.279Z,86.06
2022-11-24T11:37:28.272Z,86.03
2022-11-24T11:38:28.251Z,85.90
2022-11-24T11:39:28.252Z,85.83
2022-11-24T11:40:28.233Z,85.84
2022-11-24T11:41:28.214Z,85.87
2022-11-24T11:43:28.204Z,86.03
2022-11-24T11:44:28.180Z,86.13
2022-11-24T11:45:28.252Z,86.33
2022-11-24T11:46:28.190Z,86.41
2022-11-24T11:47:28.151Z,86.44
2022-11-24T11:48:28.127Z,86.41
2022-11-24T11:49:28.121Z,86.41
2022-11-24T11:50:28.147Z,86.37
2022-11-24T11:51:28.181Z,86.44
2022-11-24T11:52:28.072Z,86.57
2022-11-24T11:53:28.063Z,86.66
2022-11-24T11:54:28.045Z,86.69
2022-11-24T11:55:28.053Z,86.55
2022-11-24T11:56:28.030Z,86.57
2022-11-24T11:57:28.006Z,86.52
2022-11-24T11:58:27.998Z,86.52
2022-11-24T11:59:28.012Z,86.68
2022-11-24T12:00:27.994Z,86.77
2022-11-24T12:01:28.080Z,86.88
2022-11-24T12:02:28.103Z,86.93
2022-11-24T12:03:28.082Z,86.99
2022-11-24T12:04:27.919Z,86.94
2022-11-24T12:05:27.904Z,86.89
2022-11-24T12:06:27.891Z,86.78
2022-11-24T12:07:27.935Z,86.69
2022-11-24T12:08:27.857Z,86.82
2022-11-24T12:09:27.849Z,86.90
2022-11-24T12:10:27.837Z,86.87
2022-11-24T12:11:27.823Z,87.04
2022-11-24T12:12:27.805Z,87.26
2022-11-24T12:13:27.822Z,87.26
2022-11-24T12:14:27.813Z,86.82
2022-11-24T12:15:27.782Z,86.98
2022-11-24T12:16:27.952Z,87.17
2022-11-24T12:17:27.756Z,86.98
2022-11-24T12:18:56.017Z,87.12
2022-11-24T12:19:27.722Z,87.06
2022-11-24T12:20:27.706Z,87.20
2022-11-24T12:21:27.705Z,87.28
2022-11-24T12:22:27.696Z,87.27
2022-11-24T12:23:27.674Z,87.33
2022-11-24T12:24:27.709Z,87.29
2022-11-24T12:25:27.658Z,87.20
2022-11-24T12:26:27.653Z,87.17
2022-11-24T12:27:27.639Z,87.23
2022-11-24T12:28:27.591Z,87.13
2022-11-24T12:29:27.593Z,87.21
2022-11-24T12:30:27.593Z,87.37
2022-11-24T12:31:27.610Z,87.38
2022-11-24T12:32:27.550Z,87.38
2022-11-24T12:33:27.553Z,87.31
2022-11-24T12:34:27.517Z,87.17
2022-11-24T12:35:27.509Z,87.07
2022-11-24T12:36:27.495Z,87.24
2022-11-24T12:37:27.500Z,87.29
2022-11-24T12:38:27.471Z,87.35
2022-11-24T12:39:27.455Z,87.39
2022-11-24T12:40:27.441Z,87.41
2022-11-24T12:41:41.818Z,87.44
2022-11-24T12:42:27.422Z,87.52
2022-11-24T12:43:27.437Z,87.59
2022-11-24T12:44:27.418Z,87.61
2022-11-24T12:45:27.365Z,87.50
2022-11-24T12:46:27.480Z,87.58
2022-11-24T12:47:27.343Z,87.28
2022-11-24T12:48:27.336Z,87.03
2022-11-24T12:49:27.350Z,87.27
2022-11-24T12:50:27.306Z,87.38
2022-11-24T12:51:27.286Z,87.43
2022-11-24T12:52:27.320Z,87.48
2022-11-24T12:53:27.269Z,87.58
2022-11-24T12:54:27.262Z,87.49
2022-11-24T12:55:27.243Z,87.51
2022-11-24T12:56:27.217Z,87.53
2022-11-24T12:57:27.250Z,87.53
2022-11-24T12:58:27.208Z,87.35
2022-11-24T12:59:27.185Z,87.14
2022-11-24T13:00:27.165Z,87.28